Milwaukee, Wisconsin
Traffic Map
Current Weather Conditions
Milwaukee, Wisconsin
Few Clouds
Few Clouds
69°
Feels Like: 69°
Wind Chill: 69° Ceiling: Unl
Heat Index: 69° Visibility: 10mi
Dew Point: 52° Wind: 8mph
Humidity: 54% Direction: 120° (ESE)
Pressure: 30.18in Gusts: 0mph
Raw Report DataKMKE 241752Z 12007KT 10SM FEW035 FEW250 21/11 A3018 RMK AO2 SLP219 T02060111 10206 20150 58001
Traffic Incident Summary
Active as of:
Severity:
Category:
InformationThere was an issue retrieving the traffic information for this location. Please try a different location or try again shortly.
Advertisements
Track Severe Weather on mobile